sensor_id;sensor_type;location;lat;lon;timestamp;P1;durP1;ratioP1;P2;durP2;ratioP2
14187;SDS011;7175;51.978;5.330;2023-10-09T00:00:26;137.10;;;125.37;;
14187;SDS011;7175;51.978;5.330;2023-10-09T00:03:17;141.17;;;129.47;;
14187;SDS011;7175;51.978;5.330;2023-10-09T00:05:49;144.40;;;132.60;;
14187;SDS011;7175;51.978;5.330;2023-10-09T00:08:20;145.17;;;133.27;;
14187;SDS011;7175;51.978;5.330;2023-10-09T00:10:57;144.27;;;132.60;;
14187;SDS011;7175;51.978;5.330;2023-10-09T00:13:40;144.97;;;133.23;;
14187;SDS011;7175;51.978;5.330;2023-10-09T00:16:17;144.73;;;133.07;;
14187;SDS011;7175;51.978;5.330;2023-10-09T00:19:00;143.37;;;131.77;;
14187;SDS011;7175;51.978;5.330;2023-10-09T00:21:40;145.37;;;133.60;;
14187;SDS011;7175;51.978;5.330;2023-10-09T00:24:09;148.83;;;136.87;;
14187;SDS011;7175;51.978;5.330;2023-10-09T00:26:41;138.37;;;126.47;;
14187;SDS011;7175;51.978;5.330;2023-10-09T00:29:12;139.47;;;127.57;;
14187;SDS011;7175;51.978;5.330;2023-10-09T00:31:50;137.87;;;126.20;;
14187;SDS011;7175;51.978;5.330;2023-10-09T00:34:22;141.40;;;129.67;;
14187;SDS011;7175;51.978;5.330;2023-10-09T00:36:52;143.57;;;131.87;;
14187;SDS011;7175;51.978;5.330;2023-10-09T00:39:22;142.97;;;131.27;;
14187;SDS011;7175;51.978;5.330;2023-10-09T00:42:07;136.23;;;124.67;;
14187;SDS011;7175;51.978;5.330;2023-10-09T00:44:39;139.67;;;127.93;;
14187;SDS011;7175;51.978;5.330;2023-10-09T00:47:12;138.57;;;126.83;;
14187;SDS011;7175;51.978;5.330;2023-10-09T00:49:54;140.93;;;129.13;;
14187;SDS011;7175;51.978;5.330;2023-10-09T00:52:28;138.00;;;126.30;;
14187;SDS011;7175;51.978;5.330;2023-10-09T00:55:03;137.90;;;126.20;;
14187;SDS011;7175;51.978;5.330;2023-10-09T00:57:41;134.63;;;123.13;;
14187;SDS011;7175;51.978;5.330;2023-10-09T01:00:20;132.63;;;121.23;;
14187;SDS011;7175;51.978;5.330;2023-10-09T01:03:13;135.13;;;123.83;;
14187;SDS011;7175;51.978;5.330;2023-10-09T01:05:48;132.67;;;121.73;;
14187;SDS011;7175;51.978;5.330;2023-10-09T01:08:24;127.87;;;116.87;;
14187;SDS011;7175;51.978;5.330;2023-10-09T01:10:56;131.53;;;120.60;;
14187;SDS011;7175;51.978;5.330;2023-10-09T01:13:35;129.77;;;118.97;;
14187;SDS011;7175;51.978;5.330;2023-10-09T01:16:20;127.70;;;116.97;;
14187;SDS011;7175;51.978;5.330;2023-10-09T01:18:51;129.57;;;118.77;;
14187;SDS011;7175;51.978;5.330;2023-10-09T01:21:24;129.43;;;118.83;;
14187;SDS011;7175;51.978;5.330;2023-10-09T01:23:55;129.50;;;118.90;;
14187;SDS011;7175;51.978;5.330;2023-10-09T01:26:31;129.00;;;118.40;;
14187;SDS011;7175;51.978;5.330;2023-10-09T01:29:06;127.47;;;117.00;;
14187;SDS011;7175;51.978;5.330;2023-10-09T01:31:37;127.57;;;117.20;;
14187;SDS011;7175;51.978;5.330;2023-10-09T01:34:11;127.40;;;117.00;;
14187;SDS011;7175;51.978;5.330;2023-10-09T01:36:42;126.13;;;115.87;;
14187;SDS011;7175;51.978;5.330;2023-10-09T01:39:12;126.27;;;115.97;;
14187;SDS011;7175;51.978;5.330;2023-10-09T01:41:51;125.33;;;115.27;;
14187;SDS011;7175;51.978;5.330;2023-10-09T01:44:25;125.33;;;115.40;;
14187;SDS011;7175;51.978;5.330;2023-10-09T01:46:56;122.43;;;112.60;;
14187;SDS011;7175;51.978;5.330;2023-10-09T01:49:25;124.37;;;114.47;;
14187;SDS011;7175;51.978;5.330;2023-10-09T01:51:59;123.07;;;113.27;;
14187;SDS011;7175;51.978;5.330;2023-10-09T01:54:37;124.90;;;115.30;;
14187;SDS011;7175;51.978;5.330;2023-10-09T01:57:09;123.93;;;114.53;;
14187;SDS011;7175;51.978;5.330;2023-10-09T01:59:39;122.67;;;113.20;;
14187;SDS011;7175;51.978;5.330;2023-10-09T02:02:10;124.50;;;115.00;;
14187;SDS011;7175;51.978;5.330;2023-10-09T02:04:52;124.80;;;115.40;;
14187;SDS011;7175;51.978;5.330;2023-10-09T02:07:32;119.97;;;110.57;;
14187;SDS011;7175;51.978;5.330;2023-10-09T02:10:09;119.83;;;110.73;;
14187;SDS011;7175;51.978;5.330;2023-10-09T02:12:48;119.13;;;110.03;;
14187;SDS011;7175;51.978;5.330;2023-10-09T02:15:20;117.57;;;108.47;;
14187;SDS011;7175;51.978;5.330;2023-10-09T02:18:10;116.50;;;107.60;;
14187;SDS011;7175;51.978;5.330;2023-10-09T02:20:53;116.70;;;107.90;;
14187;SDS011;7175;51.978;5.330;2023-10-09T02:23:40;113.63;;;104.93;;
14187;SDS011;7175;51.978;5.330;2023-10-09T02:26:15;112.90;;;104.10;;
14187;SDS011;7175;51.978;5.330;2023-10-09T02:28:50;110.50;;;101.77;;
14187;SDS011;7175;51.978;5.330;2023-10-09T02:31:26;109.40;;;100.60;;
14187;SDS011;7175;51.978;5.330;2023-10-09T02:34:03;111.30;;;102.50;;
14187;SDS011;7175;51.978;5.330;2023-10-09T02:36:39;109.30;;;100.60;;
14187;SDS011;7175;51.978;5.330;2023-10-09T02:39:09;112.87;;;104.17;;
14187;SDS011;7175;51.978;5.330;2023-10-09T02:41:53;111.60;;;102.90;;
14187;SDS011;7175;51.978;5.330;2023-10-09T02:44:30;108.90;;;100.40;;
14187;SDS011;7175;51.978;5.330;2023-10-09T02:47:05;108.83;;;100.47;;
14187;SDS011;7175;51.978;5.330;2023-10-09T02:49:44;111.67;;;103.17;;
14187;SDS011;7175;51.978;5.330;2023-10-09T02:52:14;112.43;;;103.93;;
14187;SDS011;7175;51.978;5.330;2023-10-09T02:54:45;110.50;;;102.10;;
14187;SDS011;7175;51.978;5.330;2023-10-09T02:57:15;109.40;;;100.97;;
14187;SDS011;7175;51.978;5.330;2023-10-09T02:59:52;109.57;;;101.37;;
14187;SDS011;7175;51.978;5.330;2023-10-09T03:02:21;113.77;;;105.57;;
14187;SDS011;7175;51.978;5.330;2023-10-09T03:04:51;116.13;;;107.83;;
14187;SDS011;7175;51.978;5.330;2023-10-09T03:07:22;112.80;;;104.63;;
14187;SDS011;7175;51.978;5.330;2023-10-09T03:09:53;114.63;;;106.27;;
14187;SDS011;7175;51.978;5.330;2023-10-09T03:12:23;114.20;;;105.80;;
14187;SDS011;7175;51.978;5.330;2023-10-09T03:14:54;114.03;;;105.63;;
14187;SDS011;7175;51.978;5.330;2023-10-09T03:17:25;113.67;;;105.33;;
14187;SDS011;7175;51.978;5.330;2023-10-09T03:19:54;113.00;;;104.70;;
14187;SDS011;7175;51.978;5.330;2023-10-09T03:22:22;108.90;;;100.80;;
14187;SDS011;7175;51.978;5.330;2023-10-09T03:24:53;116.37;;;108.00;;
14187;SDS011;7175;51.978;5.330;2023-10-09T03:27:23;113.43;;;105.33;;
14187;SDS011;7175;51.978;5.330;2023-10-09T03:29:51;114.97;;;106.73;;
14187;SDS011;7175;51.978;5.330;2023-10-09T03:32:20;111.53;;;103.47;;
14187;SDS011;7175;51.978;5.330;2023-10-09T03:34:50;111.87;;;103.77;;
14187;SDS011;7175;51.978;5.330;2023-10-09T03:37:21;113.40;;;105.30;;
14187;SDS011;7175;51.978;5.330;2023-10-09T03:40:00;112.60;;;104.60;;
14187;SDS011;7175;51.978;5.330;2023-10-09T03:42:32;112.47;;;104.53;;
14187;SDS011;7175;51.978;5.330;2023-10-09T03:45:03;111.17;;;103.37;;
14187;SDS011;7175;51.978;5.330;2023-10-09T03:47:40;111.87;;;104.07;;
14187;SDS011;7175;51.978;5.330;2023-10-09T03:50:09;113.17;;;105.27;;
14187;SDS011;7175;51.978;5.330;2023-10-09T03:52:53;111.40;;;103.60;;
14187;SDS011;7175;51.978;5.330;2023-10-09T03:55:22;112.03;;;104.30;;
14187;SDS011;7175;51.978;5.330;2023-10-09T03:57:56;112.50;;;104.50;;
14187;SDS011;7175;51.978;5.330;2023-10-09T04:00:29;114.07;;;105.97;;
14187;SDS011;7175;51.978;5.330;2023-10-09T04:02:58;114.10;;;105.90;;
14187;SDS011;7175;51.978;5.330;2023-10-09T04:05:32;117.07;;;108.67;;
14187;SDS011;7175;51.978;5.330;2023-10-09T04:08:00;113.13;;;104.77;;
14187;SDS011;7175;51.978;5.330;2023-10-09T04:10:28;113.43;;;105.17;;
14187;SDS011;7175;51.978;5.330;2023-10-09T04:13:22;115.60;;;107.20;;
14187;SDS011;7175;51.978;5.330;2023-10-09T04:16:00;115.93;;;107.33;;
14187;SDS011;7175;51.978;5.330;2023-10-09T04:18:39;116.03;;;107.63;;
14187;SDS011;7175;51.978;5.330;2023-10-09T04:21:12;117.13;;;108.63;;
14187;SDS011;7175;51.978;5.330;2023-10-09T04:23:46;119.23;;;110.63;;
14187;SDS011;7175;51.978;5.330;2023-10-09T04:26:32;117.73;;;109.27;;
14187;SDS011;7175;51.978;5.330;2023-10-09T04:29:05;120.37;;;111.67;;
14187;SDS011;7175;51.978;5.330;2023-10-09T04:31:37;132.93;;;123.87;;
14187;SDS011;7175;51.978;5.330;2023-10-09T04:34:05;123.43;;;114.60;;
14187;SDS011;7175;51.978;5.330;2023-10-09T04:36:50;124.90;;;115.90;;
14187;SDS011;7175;51.978;5.330;2023-10-09T04:39:23;126.97;;;117.60;;
14187;SDS011;7175;51.978;5.330;2023-10-09T04:42:13;122.80;;;113.77;;
14187;SDS011;7175;51.978;5.330;2023-10-09T04:45:05;119.10;;;110.30;;
14187;SDS011;7175;51.978;5.330;2023-10-09T04:47:48;121.10;;;112.30;;
14187;SDS011;7175;51.978;5.330;2023-10-09T04:50:33;119.47;;;110.67;;
14187;SDS011;7175;51.978;5.330;2023-10-09T04:53:12;123.90;;;115.13;;
14187;SDS011;7175;51.978;5.330;2023-10-09T04:55:53;120.87;;;112.10;;
14187;SDS011;7175;51.978;5.330;2023-10-09T04:58:31;120.63;;;112.07;;
14187;SDS011;7175;51.978;5.330;2023-10-09T05:01:07;120.37;;;111.63;;
14187;SDS011;7175;51.978;5.330;2023-10-09T05:04:03;122.87;;;114.07;;
14187;SDS011;7175;51.978;5.330;2023-10-09T05:06:46;119.40;;;110.70;;
14187;SDS011;7175;51.978;5.330;2023-10-09T05:09:22;119.23;;;110.63;;
14187;SDS011;7175;51.978;5.330;2023-10-09T05:11:51;117.67;;;109.00;;
14187;SDS011;7175;51.978;5.330;2023-10-09T05:14:36;116.17;;;107.50;;
14187;SDS011;7175;51.978;5.330;2023-10-09T05:17:08;114.10;;;105.60;;
14187;SDS011;7175;51.978;5.330;2023-10-09T05:19:43;115.00;;;106.60;;
14187;SDS011;7175;51.978;5.330;2023-10-09T05:22:42;113.40;;;105.20;;
14187;SDS011;7175;51.978;5.330;2023-10-09T05:25:24;111.40;;;103.40;;
14187;SDS011;7175;51.978;5.330;2023-10-09T05:28:22;114.50;;;106.20;;
14187;SDS011;7175;51.978;5.330;2023-10-09T05:30:58;111.87;;;103.63;;
14187;SDS011;7175;51.978;5.330;2023-10-09T05:33:37;107.70;;;99.80;;
14187;SDS011;7175;51.978;5.330;2023-10-09T05:36:06;104.27;;;96.57;;
14187;SDS011;7175;51.978;5.330;2023-10-09T05:38:49;97.53;;;90.10;;
14187;SDS011;7175;51.978;5.330;2023-10-09T05:41:25;96.90;;;89.40;;
14187;SDS011;7175;51.978;5.330;2023-10-09T05:44:14;98.80;;;91.13;;
14187;SDS011;7175;51.978;5.330;2023-10-09T05:46:59;97.90;;;90.40;;
14187;SDS011;7175;51.978;5.330;2023-10-09T05:49:47;99.27;;;91.67;;
14187;SDS011;7175;51.978;5.330;2023-10-09T05:52:27;97.67;;;90.03;;
14187;SDS011;7175;51.978;5.330;2023-10-09T05:55:13;102.20;;;94.50;;
14187;SDS011;7175;51.978;5.330;2023-10-09T05:58:07;101.23;;;93.37;;
14187;SDS011;7175;51.978;5.330;2023-10-09T06:00:53;107.53;;;99.63;;
14187;SDS011;7175;51.978;5.330;2023-10-09T06:03:48;106.10;;;97.80;;
14187;SDS011;7175;51.978;5.330;2023-10-09T06:06:22;104.67;;;96.17;;
14187;SDS011;7175;51.978;5.330;2023-10-09T06:09:10;99.63;;;91.33;;
14187;SDS011;7175;51.978;5.330;2023-10-09T06:12:11;98.60;;;90.50;;
14187;SDS011;7175;51.978;5.330;2023-10-09T06:15:20;91.20;;;83.60;;
14187;SDS011;7175;51.978;5.330;2023-10-09T06:18:18;108.00;;;99.28;;
14187;SDS011;7175;51.978;5.330;2023-10-09T06:20:59;105.87;;;97.37;;
14187;SDS011;7175;51.978;5.330;2023-10-09T06:23:47;105.00;;;96.80;;
14187;SDS011;7175;51.978;5.330;2023-10-09T06:26:35;101.70;;;93.90;;
14187;SDS011;7175;51.978;5.330;2023-10-09T06:29:04;99.40;;;91.80;;
14187;SDS011;7175;51.978;5.330;2023-10-09T06:32:00;95.90;;;88.50;;
14187;SDS011;7175;51.978;5.330;2023-10-09T06:34:50;91.93;;;84.73;;
14187;SDS011;7175;51.978;5.330;2023-10-09T06:37:23;115.15;;;106.88;;
14187;SDS011;7175;51.978;5.330;2023-10-09T06:40:02;116.37;;;107.87;;
14187;SDS011;7175;51.978;5.330;2023-10-09T06:42:49;106.77;;;98.97;;
14187;SDS011;7175;51.978;5.330;2023-10-09T06:45:21;103.30;;;95.83;;
14187;SDS011;7175;51.978;5.330;2023-10-09T06:48:10;101.17;;;93.77;;
14187;SDS011;7175;51.978;5.330;2023-10-09T06:50:52;98.27;;;90.97;;
14187;SDS011;7175;51.978;5.330;2023-10-09T06:53:30;101.00;;;93.53;;
14187;SDS011;7175;51.978;5.330;2023-10-09T06:56:17;100.97;;;93.37;;
14187;SDS011;7175;51.978;5.330;2023-10-09T06:58:52;101.27;;;93.67;;
14187;SDS011;7175;51.978;5.330;2023-10-09T07:01:21;101.23;;;93.63;;
14187;SDS011;7175;51.978;5.330;2023-10-09T07:04:09;99.87;;;92.47;;
14187;SDS011;7175;51.978;5.330;2023-10-09T07:06:46;100.37;;;92.90;;
14187;SDS011;7175;51.978;5.330;2023-10-09T07:09:19;100.57;;;93.17;;
14187;SDS011;7175;51.978;5.330;2023-10-09T07:11:48;99.07;;;91.77;;
14187;SDS011;7175;51.978;5.330;2023-10-09T07:14:34;99.17;;;91.97;;
14187;SDS011;7175;51.978;5.330;2023-10-09T07:17:20;96.83;;;89.83;;
14187;SDS011;7175;51.978;5.330;2023-10-09T07:20:11;97.77;;;90.77;;
14187;SDS011;7175;51.978;5.330;2023-10-09T07:22:42;94.70;;;87.90;;
14187;SDS011;7175;51.978;5.330;2023-10-09T07:25:40;91.80;;;85.20;;
14187;SDS011;7175;51.978;5.330;2023-10-09T07:28:23;88.50;;;82.10;;
14187;SDS011;7175;51.978;5.330;2023-10-09T07:31:16;85.53;;;79.33;;
14187;SDS011;7175;51.978;5.330;2023-10-09T07:33:51;83.80;;;77.70;;
14187;SDS011;7175;51.978;5.330;2023-10-09T07:36:24;85.63;;;79.37;;
14187;SDS011;7175;51.978;5.330;2023-10-09T07:39:13;89.97;;;83.57;;
14187;SDS011;7175;51.978;5.330;2023-10-09T07:41:42;90.60;;;84.27;;
14187;SDS011;7175;51.978;5.330;2023-10-09T07:44:30;90.40;;;84.03;;
14187;SDS011;7175;51.978;5.330;2023-10-09T07:47:04;92.60;;;86.13;;
14187;SDS011;7175;51.978;5.330;2023-10-09T07:49:45;88.50;;;82.20;;
14187;SDS011;7175;51.978;5.330;2023-10-09T07:52:20;88.07;;;81.77;;
14187;SDS011;7175;51.978;5.330;2023-10-09T07:54:49;87.37;;;81.13;;
14187;SDS011;7175;51.978;5.330;2023-10-09T07:57:20;82.57;;;76.57;;
14187;SDS011;7175;51.978;5.330;2023-10-09T07:59:57;81.70;;;75.80;;
14187;SDS011;7175;51.978;5.330;2023-10-09T08:02:39;77.23;;;71.50;;
14187;SDS011;7175;51.978;5.330;2023-10-09T08:05:07;83.10;;;77.23;;
14187;SDS011;7175;51.978;5.330;2023-10-09T08:07:46;89.57;;;83.47;;
14187;SDS011;7175;51.978;5.330;2023-10-09T08:11:01;85.10;;;79.23;;
14187;SDS011;7175;51.978;5.330;2023-10-09T08:13:46;77.07;;;71.67;;
14187;SDS011;7175;51.978;5.330;2023-10-09T08:16:25;72.80;;;67.57;;
14187;SDS011;7175;51.978;5.330;2023-10-09T08:19:03;73.17;;;67.97;;
14187;SDS011;7175;51.978;5.330;2023-10-09T08:21:54;69.50;;;64.47;;
14187;SDS011;7175;51.978;5.330;2023-10-09T08:25:04;69.57;;;64.57;;
14187;SDS011;7175;51.978;5.330;2023-10-09T08:27:33;69.37;;;64.37;;
14187;SDS011;7175;51.978;5.330;2023-10-09T08:30:21;70.40;;;65.40;;
14187;SDS011;7175;51.978;5.330;2023-10-09T08:33:09;66.47;;;61.67;;
14187;SDS011;7175;51.978;5.330;2023-10-09T08:35:57;60.27;;;55.83;;
14187;SDS011;7175;51.978;5.330;2023-10-09T08:38:32;58.87;;;54.57;;
14187;SDS011;7175;51.978;5.330;2023-10-09T08:41:06;55.63;;;51.47;;
14187;SDS011;7175;51.978;5.330;2023-10-09T08:43:47;55.80;;;51.70;;
14187;SDS011;7175;51.978;5.330;2023-10-09T08:46:19;51.87;;;48.07;;
14187;SDS011;7175;51.978;5.330;2023-10-09T08:48:49;46.47;;;42.93;;
14187;SDS011;7175;51.978;5.330;2023-10-09T08:51:18;45.07;;;41.57;;
14187;SDS011;7175;51.978;5.330;2023-10-09T08:53:47;45.00;;;41.50;;
14187;SDS011;7175;51.978;5.330;2023-10-09T08:56:19;42.10;;;38.80;;
14187;SDS011;7175;51.978;5.330;2023-10-09T08:58:51;41.40;;;38.30;;
14187;SDS011;7175;51.978;5.330;2023-10-09T09:01:22;40.20;;;37.20;;
14187;SDS011;7175;51.978;5.330;2023-10-09T09:03:53;39.97;;;36.97;;
14187;SDS011;7175;51.978;5.330;2023-10-09T09:06:23;36.47;;;33.67;;
14187;SDS011;7175;51.978;5.330;2023-10-09T09:08:51;35.20;;;32.40;;
14187;SDS011;7175;51.978;5.330;2023-10-09T09:11:26;34.33;;;31.63;;
14187;SDS011;7175;51.978;5.330;2023-10-09T09:14:03;32.60;;;30.00;;
14187;SDS011;7175;51.978;5.330;2023-10-09T09:16:34;31.80;;;29.30;;
14187;SDS011;7175;51.978;5.330;2023-10-09T09:19:05;30.73;;;28.23;;
14187;SDS011;7175;51.978;5.330;2023-10-09T09:21:48;29.40;;;27.00;;
14187;SDS011;7175;51.978;5.330;2023-10-09T09:24:21;27.10;;;24.80;;
14187;SDS011;7175;51.978;5.330;2023-10-09T09:27:03;27.10;;;24.80;;
14187;SDS011;7175;51.978;5.330;2023-10-09T09:29:45;26.67;;;24.37;;
14187;SDS011;7175;51.978;5.330;2023-10-09T09:32:27;25.17;;;22.97;;
14187;SDS011;7175;51.978;5.330;2023-10-09T09:35:08;24.40;;;22.30;;
14187;SDS011;7175;51.978;5.330;2023-10-09T09:37:51;24.13;;;22.03;;
14187;SDS011;7175;51.978;5.330;2023-10-09T09:40:21;23.87;;;21.87;;
14187;SDS011;7175;51.978;5.330;2023-10-09T09:43:01;23.90;;;21.80;;
14187;SDS011;7175;51.978;5.330;2023-10-09T09:45:34;23.90;;;21.80;;
14187;SDS011;7175;51.978;5.330;2023-10-09T09:48:03;23.73;;;21.63;;
14187;SDS011;7175;51.978;5.330;2023-10-09T09:50:35;23.00;;;21.00;;
14187;SDS011;7175;51.978;5.330;2023-10-09T09:53:10;23.40;;;21.30;;
14187;SDS011;7175;51.978;5.330;2023-10-09T09:55:44;22.87;;;20.87;;
14187;SDS011;7175;51.978;5.330;2023-10-09T09:58:18;22.73;;;20.73;;
14187;SDS011;7175;51.978;5.330;2023-10-09T10:00:50;22.50;;;20.50;;
14187;SDS011;7175;51.978;5.330;2023-10-09T10:03:23;22.27;;;20.27;;
14187;SDS011;7175;51.978;5.330;2023-10-09T10:06:02;22.13;;;20.20;;
14187;SDS011;7175;51.978;5.330;2023-10-09T10:08:36;22.30;;;20.37;;
14187;SDS011;7175;51.978;5.330;2023-10-09T10:11:05;22.27;;;20.30;;
14187;SDS011;7175;51.978;5.330;2023-10-09T10:13:57;22.07;;;20.17;;
14187;SDS011;7175;51.978;5.330;2023-10-09T10:16:30;23.00;;;21.00;;
14187;SDS011;7175;51.978;5.330;2023-10-09T10:19:02;22.70;;;20.70;;
14187;SDS011;7175;51.978;5.330;2023-10-09T10:21:49;23.00;;;21.00;;
14187;SDS011;7175;51.978;5.330;2023-10-09T10:27:25;22.37;;;20.37;;
14187;SDS011;7175;51.978;5.330;2023-10-09T10:33:01;22.13;;;20.23;;
14187;SDS011;7175;51.978;5.330;2023-10-09T10:35:40;22.00;;;20.10;;
14187;SDS011;7175;51.978;5.330;2023-10-09T10:38:30;21.37;;;19.47;;
14187;SDS011;7175;51.978;5.330;2023-10-09T10:41:11;21.40;;;19.50;;
14187;SDS011;7175;51.978;5.330;2023-10-09T10:43:40;21.40;;;19.50;;
14187;SDS011;7175;51.978;5.330;2023-10-09T10:46:47;21.63;;;19.73;;
14187;SDS011;7175;51.978;5.330;2023-10-09T10:49:19;21.40;;;19.50;;
14187;SDS011;7175;51.978;5.330;2023-10-09T10:51:51;21.27;;;19.37;;
14187;SDS011;7175;51.978;5.330;2023-10-09T10:54:30;21.07;;;19.17;;
14187;SDS011;7175;51.978;5.330;2023-10-09T10:57:16;21.27;;;19.37;;
14187;SDS011;7175;51.978;5.330;2023-10-09T11:00:18;20.57;;;18.77;;
14187;SDS011;7175;51.978;5.330;2023-10-09T11:03:00;20.70;;;18.90;;
14187;SDS011;7175;51.978;5.330;2023-10-09T11:05:43;20.47;;;18.67;;
14187;SDS011;7175;51.978;5.330;2023-10-09T11:08:18;20.10;;;18.30;;
14187;SDS011;7175;51.978;5.330;2023-10-09T11:10:56;20.13;;;18.33;;
14187;SDS011;7175;51.978;5.330;2023-10-09T11:13:42;20.37;;;18.57;;
14187;SDS011;7175;51.978;5.330;2023-10-09T11:16:24;20.27;;;18.47;;
14187;SDS011;7175;51.978;5.330;2023-10-09T11:19:10;20.60;;;18.80;;
14187;SDS011;7175;51.978;5.330;2023-10-09T11:21:56;20.10;;;18.40;;
14187;SDS011;7175;51.978;5.330;2023-10-09T11:24:42;20.33;;;18.53;;
14187;SDS011;7175;51.978;5.330;2023-10-09T11:27:12;20.00;;;18.20;;
14187;SDS011;7175;51.978;5.330;2023-10-09T11:29:48;20.50;;;18.70;;
14187;SDS011;7175;51.978;5.330;2023-10-09T11:32:31;20.33;;;18.53;;
14187;SDS011;7175;51.978;5.330;2023-10-09T11:35:11;20.43;;;18.63;;
14187;SDS011;7175;51.978;5.330;2023-10-09T11:37:56;20.53;;;18.73;;
14187;SDS011;7175;51.978;5.330;2023-10-09T11:40:27;20.43;;;18.63;;
14187;SDS011;7175;51.978;5.330;2023-10-09T11:43:10;20.00;;;18.30;;
14187;SDS011;7175;51.978;5.330;2023-10-09T11:45:40;20.33;;;18.53;;
14187;SDS011;7175;51.978;5.330;2023-10-09T11:48:21;20.10;;;18.30;;
14187;SDS011;7175;51.978;5.330;2023-10-09T11:51:00;20.17;;;18.43;;
14187;SDS011;7175;51.978;5.330;2023-10-09T11:53:42;20.23;;;18.50;;
14187;SDS011;7175;51.978;5.330;2023-10-09T11:56:12;20.13;;;18.43;;
14187;SDS011;7175;51.978;5.330;2023-10-09T11:58:45;20.07;;;18.37;;
14187;SDS011;7175;51.978;5.330;2023-10-09T12:01:18;20.00;;;18.30;;
14187;SDS011;7175;51.978;5.330;2023-10-09T12:03:49;20.03;;;18.33;;
14187;SDS011;7175;51.978;5.330;2023-10-09T12:06:20;20.13;;;18.33;;
14187;SDS011;7175;51.978;5.330;2023-10-09T12:08:49;20.10;;;18.30;;
14187;SDS011;7175;51.978;5.330;2023-10-09T12:11:20;20.20;;;18.40;;
14187;SDS011;7175;51.978;5.330;2023-10-09T12:13:57;19.70;;;18.00;;
14187;SDS011;7175;51.978;5.330;2023-10-09T12:16:37;19.70;;;18.00;;
14187;SDS011;7175;51.978;5.330;2023-10-09T12:19:16;19.77;;;18.07;;
14187;SDS011;7175;51.978;5.330;2023-10-09T12:21:45;19.70;;;18.00;;
14187;SDS011;7175;51.978;5.330;2023-10-09T12:24:13;19.70;;;17.90;;
14187;SDS011;7175;51.978;5.330;2023-10-09T12:26:45;19.83;;;18.03;;
14187;SDS011;7175;51.978;5.330;2023-10-09T12:29:15;20.20;;;18.40;;
14187;SDS011;7175;51.978;5.330;2023-10-09T12:31:48;20.60;;;18.80;;
14187;SDS011;7175;51.978;5.330;2023-10-09T12:34:24;20.53;;;18.63;;
14187;SDS011;7175;51.978;5.330;2023-10-09T12:36:54;20.60;;;18.70;;
14187;SDS011;7175;51.978;5.330;2023-10-09T12:39:23;20.67;;;18.77;;
14187;SDS011;7175;51.978;5.330;2023-10-09T12:41:51;20.80;;;18.90;;
14187;SDS011;7175;51.978;5.330;2023-10-09T12:44:21;20.90;;;19.00;;
14187;SDS011;7175;51.978;5.330;2023-10-09T12:46:53;20.80;;;18.90;;
14187;SDS011;7175;51.978;5.330;2023-10-09T12:49:25;20.60;;;18.70;;
14187;SDS011;7175;51.978;5.330;2023-10-09T12:51:54;20.73;;;18.83;;
14187;SDS011;7175;51.978;5.330;2023-10-09T12:54:22;20.67;;;18.77;;
14187;SDS011;7175;51.978;5.330;2023-10-09T12:56:54;20.87;;;18.97;;
14187;SDS011;7175;51.978;5.330;2023-10-09T12:59:23;20.77;;;18.87;;
14187;SDS011;7175;51.978;5.330;2023-10-09T13:01:52;20.83;;;18.93;;
14187;SDS011;7175;51.978;5.330;2023-10-09T13:04:24;20.67;;;18.83;;
14187;SDS011;7175;51.978;5.330;2023-10-09T13:06:59;20.70;;;18.90;;
14187;SDS011;7175;51.978;5.330;2023-10-09T13:09:31;20.53;;;18.73;;
14187;SDS011;7175;51.978;5.330;2023-10-09T13:12:02;20.60;;;18.80;;
14187;SDS011;7175;51.978;5.330;2023-10-09T13:14:32;20.43;;;18.63;;
14187;SDS011;7175;51.978;5.330;2023-10-09T13:17:02;20.30;;;18.50;;
14187;SDS011;7175;51.978;5.330;2023-10-09T13:19:36;20.03;;;18.23;;
14187;SDS011;7175;51.978;5.330;2023-10-09T13:22:05;20.07;;;18.27;;
14187;SDS011;7175;51.978;5.330;2023-10-09T13:24:39;20.23;;;18.43;;
14187;SDS011;7175;51.978;5.330;2023-10-09T13:27:08;19.80;;;18.10;;
14187;SDS011;7175;51.978;5.330;2023-10-09T13:29:38;19.60;;;17.90;;
14187;SDS011;7175;51.978;5.330;2023-10-09T13:32:06;19.70;;;18.00;;
14187;SDS011;7175;51.978;5.330;2023-10-09T13:34:40;19.80;;;18.00;;
14187;SDS011;7175;51.978;5.330;2023-10-09T13:37:11;19.73;;;17.97;;
14187;SDS011;7175;51.978;5.330;2023-10-09T13:39:40;19.77;;;17.97;;
14187;SDS011;7175;51.978;5.330;2023-10-09T13:42:19;19.90;;;18.10;;
14187;SDS011;7175;51.978;5.330;2023-10-09T13:44:52;20.23;;;18.43;;
14187;SDS011;7175;51.978;5.330;2023-10-09T13:47:21;20.30;;;18.50;;
14187;SDS011;7175;51.978;5.330;2023-10-09T13:49:53;20.73;;;18.93;;
14187;SDS011;7175;51.978;5.330;2023-10-09T13:52:24;20.27;;;18.47;;
14187;SDS011;7175;51.978;5.330;2023-10-09T13:54:53;20.47;;;18.67;;
14187;SDS011;7175;51.978;5.330;2023-10-09T13:57:21;20.27;;;18.47;;
14187;SDS011;7175;51.978;5.330;2023-10-09T13:59:59;20.30;;;18.50;;
14187;SDS011;7175;51.978;5.330;2023-10-09T14:02:27;20.80;;;18.90;;
14187;SDS011;7175;51.978;5.330;2023-10-09T14:04:56;20.50;;;18.60;;
14187;SDS011;7175;51.978;5.330;2023-10-09T14:07:27;20.57;;;18.67;;
14187;SDS011;7175;51.978;5.330;2023-10-09T14:09:55;20.93;;;19.03;;
14187;SDS011;7175;51.978;5.330;2023-10-09T14:12:34;20.60;;;18.70;;
14187;SDS011;7175;51.978;5.330;2023-10-09T14:15:08;20.83;;;18.93;;
14187;SDS011;7175;51.978;5.330;2023-10-09T14:17:43;20.77;;;18.87;;
14187;SDS011;7175;51.978;5.330;2023-10-09T14:20:13;21.23;;;19.33;;
14187;SDS011;7175;51.978;5.330;2023-10-09T14:22:58;21.13;;;19.23;;
14187;SDS011;7175;51.978;5.330;2023-10-09T14:25:33;20.87;;;18.97;;
14187;SDS011;7175;51.978;5.330;2023-10-09T14:28:04;20.87;;;18.97;;
14187;SDS011;7175;51.978;5.330;2023-10-09T14:30:35;20.73;;;18.83;;
14187;SDS011;7175;51.978;5.330;2023-10-09T14:33:09;20.63;;;18.73;;
14187;SDS011;7175;51.978;5.330;2023-10-09T14:35:40;20.70;;;18.80;;
14187;SDS011;7175;51.978;5.330;2023-10-09T14:38:09;20.73;;;18.83;;
14187;SDS011;7175;51.978;5.330;2023-10-09T14:40:42;20.33;;;18.47;;
14187;SDS011;7175;51.978;5.330;2023-10-09T14:43:11;20.27;;;18.43;;
14187;SDS011;7175;51.978;5.330;2023-10-09T14:45:48;20.23;;;18.43;;
14187;SDS011;7175;51.978;5.330;2023-10-09T14:48:16;20.50;;;18.70;;
14187;SDS011;7175;51.978;5.330;2023-10-09T14:50:48;20.47;;;18.67;;
14187;SDS011;7175;51.978;5.330;2023-10-09T14:53:19;20.50;;;18.70;;
14187;SDS011;7175;51.978;5.330;2023-10-09T14:55:53;20.37;;;18.50;;
14187;SDS011;7175;51.978;5.330;2023-10-09T14:58:22;20.37;;;18.47;;
14187;SDS011;7175;51.978;5.330;2023-10-09T15:00:53;20.83;;;18.93;;
14187;SDS011;7175;51.978;5.330;2023-10-09T15:03:21;20.93;;;19.03;;
14187;SDS011;7175;51.978;5.330;2023-10-09T15:05:49;20.70;;;18.80;;
14187;SDS011;7175;51.978;5.330;2023-10-09T15:08:17;21.20;;;19.30;;
14187;SDS011;7175;51.978;5.330;2023-10-09T15:10:46;21.33;;;19.43;;
14187;SDS011;7175;51.978;5.330;2023-10-09T15:13:14;21.43;;;19.53;;
14187;SDS011;7175;51.978;5.330;2023-10-09T15:15:43;20.23;;;18.43;;
14187;SDS011;7175;51.978;5.330;2023-10-09T15:18:16;20.17;;;18.37;;
14187;SDS011;7175;51.978;5.330;2023-10-09T15:20:45;20.53;;;18.73;;
14187;SDS011;7175;51.978;5.330;2023-10-09T15:23:14;20.77;;;18.97;;